Pacific Titan — WCZ6844 — position and weather

sailwx.info

Track history (hours):
 
Tides and Currents Weather Stations Pressure Air Temp Water Temp Dewpoint Dewpoint Depression Visibility Wind Speed Wind Dir Waves Ship Positions

Pacific Titan

Owner: WESTERN TOWBOAT CO, SEATTLE, WA. More information available from US FCC via Universal Licensing System and Coast Guard Vessel Documentation Center.

Last reported at 2016-May-01 23:14 UTC. Time now 2016-May-03 06:48 UTC.
Position N 52°20' W 128°31'.

Type: Tow > 200 m length. MMSI: 338855000.

Date/timePositionNaut miles runAvg speedWind from/ knotsBaromVisibWave heightAir tempDewpointWater temp
2016-May-01 23:14N 52°20' W 128°31'6 9.2
2016-May-01 22:32N 52°15' W 128°23'10 9.8
2016-May-01 21:33N 52°12' W 128°08'8 7.7
2016-May-01 20:31N 52°05' W 128°05'7 7.5
2016-May-01 19:33N 51°60' W 127°56'28 9.1
2016-May-01 16:25N 51°32' W 127°52'8 9.3
2016-May-01 15:33N 51°24' W 127°53'9 9.0
2016-May-01 14:33N 51°15' W 127°52'9 8.7
2016-May-01 13:33N 51°07' W 127°47'9 9.0
2016-May-01 12:33N 51°00' W 127°36'10 9.7
2016-May-01 11:33N 50°55' W 127°24'10 9.8
2016-May-01 10:33N 50°49' W 127°11'10 9.5
2016-May-01 09:31N 50°43' W 126°59'21 9.5
2016-May-01 07:18N 50°30' W 126°33'31 8.3
2016-May-01 03:33N 50°22' W 125°46'12 8.5
2016-May-01 02:07N 50°20' W 125°27'5 9.1
2016-May-01 01:33N 50°16' W 125°23'10 9.6
2016-May-01 00:33N 50°07' W 125°18'9 9.3
2016-Apr-30 23:33N 49°59' W 125°10'9 9.2
2016-Apr-30 22:33N 49°53' W 124°60'9 9.0
2016-Apr-30 21:33N 49°47' W 124°49'9 9.4
2016-Apr-30 20:33N 49°41' W 124°38'9 9.2
2016-Apr-30 19:33N 49°35' W 124°26'10 9.8
2016-Apr-30 18:33N 49°31' W 124°13'10 9.6
2016-Apr-30 17:33N 49°25' W 124°01'10 9.7
2016-Apr-30 16:33N 49°21' W 123°48'9 9.4
2016-Apr-30 15:33N 49°14' W 123°37'9 9.4
2016-Apr-30 14:33N 49°08' W 123°27'9 9.4
2016-Apr-30 13:33N 49°01' W 123°16'9 8.8
2016-Apr-30 12:33N 48°55' W 123°07'9 8.9
2016-Apr-30 11:33N 48°50' W 122°56'9 9.1
2016-Apr-30 10:33N 48°44' W 122°45'8 8.2
2016-Apr-30 09:33N 48°36' W 122°45'10 9.6
2016-Apr-30 08:33N 48°27' W 122°44'10 9.7
2016-Apr-30 07:33N 48°17' W 122°47'8 7.8
2016-Apr-30 06:32N 48°09' W 122°43'8 8.0
2016-Apr-30 05:33N 48°03' W 122°37'7 7.4
2016-Apr-30 04:33N 47°57' W 122°31'9 8.9
2016-Apr-30 03:33N 47°48' W 122°27'9 9.0
2016-Apr-30 02:33N 47°39' W 122°27'6 6.3
2016-Apr-30 01:33N 47°34' W 122°21'1 1.3
2016-Apr-30 00:33N 47°33' W 122°21'0 0.0
2016-Apr-29 23:33N 47°33' W 122°21'5 5.0
2016-Apr-29 22:33N 47°38' W 122°24'2 2.5
2016-Apr-29 21:33N 47°40' W 122°24'1 1.4
2016-Apr-29 20:33N 47°39' W 122°22'0 0.0
2016-Apr-29 19:33N 47°39' W 122°22'0 0.0
2016-Apr-29 18:33N 47°39' W 122°22'0 0.0
2016-Apr-29 17:33N 47°39' W 122°22'0 0.0
2016-Apr-29 16:33N 47°39' W 122°22'0 0.0
2016-Apr-29 15:33N 47°39' W 122°22'0 0.0
2016-Apr-29 14:33N 47°39' W 122°22'  
2016-Apr-26 01:34N 47°40' W 122°22'3 2.6
2016-Apr-26 00:33N 47°37' W 122°23'5 4.5
2016-Apr-25 23:33N 47°33' W 122°20'5 5.0
2016-Apr-25 22:34N 47°37' W 122°24'9 9.1
2016-Apr-25 21:33N 47°46' W 122°27'10 9.9
2016-Apr-25 20:33N 47°56' W 122°31'9 8.3
2016-Apr-25 19:28N 48°03' W 122°39'8 6.3
2016-Apr-25 18:10N 48°10' W 122°45'4 6.0
2016-Apr-25 17:28N 48°13' W 122°49'9 9.9
2016-Apr-25 16:33N 48°22' W 122°46'1111.0
2016-Apr-25 15:34N 48°33' W 122°45'1010.2
2016-Apr-25 14:33N 48°43' W 122°46'1010.3
2016-Apr-25 13:33N 48°49' W 122°58'1110.5
2016-Apr-25 12:33N 48°56' W 123°11'1010.2
2016-Apr-25 11:34N 49°03' W 123°23'1110.5
2016-Apr-25 10:33N 49°10' W 123°34'1010.4
2016-Apr-25 09:34N 49°17' W 123°46'1010.1
2016-Apr-25 08:34N 49°23' W 123°58'1010.3
2016-Apr-25 07:34N 49°30' W 124°10'1010.2
2016-Apr-25 06:34N 49°34' W 124°24'1010.3
2016-Apr-25 05:33N 49°40' W 124°37'1010.3
2016-Apr-25 04:33N 49°47' W 124°50'10 9.9
2016-Apr-25 03:33N 49°54' W 125°01'1010.2
2016-Apr-25 02:34N 50°00' W 125°12'1110.8
2016-Apr-25 01:33N 50°10' W 125°22'7 7.5
2016-Apr-25 00:33N 50°17' W 125°24'3 2.8
2016-Apr-24 23:28N 50°20' W 125°25'4310.0
2016-Apr-24 19:12N 50°30' W 126°30'15 8.5
2016-Apr-24 17:28N 50°39' W 126°49'9 9.5
2016-Apr-24 16:32N 50°43' W 127°01'10 9.7
2016-Apr-24 15:33N 50°49' W 127°13'10 9.5
2016-Apr-24 14:33N 50°55' W 127°25'17 8.6
2016-Apr-24 12:33N 51°06' W 127°45'21 9.3
2016-Apr-24 10:16N 51°27' W 127°51'27 9.8
2016-Apr-24 07:30N 51°54' W 127°56'9 9.8
2016-Apr-24 06:33N 52°03' W 127°56'9 8.6
2016-Apr-24 05:33N 52°08' W 128°08'7 6.7
2016-Apr-24 04:31N 52°14' W 128°12'  
Track history (hours):
 
Tides and Currents Weather Stations Pressure Air Temp Water Temp Dewpoint Dewpoint Depression Visibility Wind Speed Wind Dir Waves Ship Positions

Pacific Titan

Owner: WESTERN TOWBOAT CO, SEATTLE, WA. More information available from US FCC via Universal Licensing System and Coast Guard Vessel Documentation Center.

Last reported at 2016-May-01 23:14 UTC. Time now 2016-May-03 06:48 UTC.
Position N 52°20' W 128°31'.

Type: Tow > 200 m length. MMSI: 338855000.

Date/timePositionNaut miles runAvg speedWind from/ knotsBaromVisibWave heightAir tempDewpointWater temp
2016-May-01 23:14N 52°20' W 128°31'6 9.2
2016-May-01 22:32N 52°15' W 128°23'10 9.8
2016-May-01 21:33N 52°12' W 128°08'8 7.7
2016-May-01 20:31N 52°05' W 128°05'7 7.5
2016-May-01 19:33N 51°60' W 127°56'28 9.1
2016-May-01 16:25N 51°32' W 127°52'8 9.3
2016-May-01 15:33N 51°24' W 127°53'9 9.0
2016-May-01 14:33N 51°15' W 127°52'9 8.7
2016-May-01 13:33N 51°07' W 127°47'9 9.0
2016-May-01 12:33N 51°00' W 127°36'10 9.7
2016-May-01 11:33N 50°55' W 127°24'10 9.8
2016-May-01 10:33N 50°49' W 127°11'10 9.5
2016-May-01 09:31N 50°43' W 126°59'21 9.5
2016-May-01 07:18N 50°30' W 126°33'31 8.3
2016-May-01 03:33N 50°22' W 125°46'12 8.5
2016-May-01 02:07N 50°20' W 125°27'5 9.1
2016-May-01 01:33N 50°16' W 125°23'10 9.6
2016-May-01 00:33N 50°07' W 125°18'9 9.3
2016-Apr-30 23:33N 49°59' W 125°10'9 9.2
2016-Apr-30 22:33N 49°53' W 124°60'9 9.0
2016-Apr-30 21:33N 49°47' W 124°49'9 9.4
2016-Apr-30 20:33N 49°41' W 124°38'9 9.2
2016-Apr-30 19:33N 49°35' W 124°26'10 9.8
2016-Apr-30 18:33N 49°31' W 124°13'10 9.6
2016-Apr-30 17:33N 49°25' W 124°01'10 9.7
2016-Apr-30 16:33N 49°21' W 123°48'9 9.4
2016-Apr-30 15:33N 49°14' W 123°37'9 9.4
2016-Apr-30 14:33N 49°08' W 123°27'9 9.4
2016-Apr-30 13:33N 49°01' W 123°16'9 8.8
2016-Apr-30 12:33N 48°55' W 123°07'9 8.9
2016-Apr-30 11:33N 48°50' W 122°56'9 9.1
2016-Apr-30 10:33N 48°44' W 122°45'8 8.2
2016-Apr-30 09:33N 48°36' W 122°45'10 9.6
2016-Apr-30 08:33N 48°27' W 122°44'10 9.7
2016-Apr-30 07:33N 48°17' W 122°47'8 7.8
2016-Apr-30 06:32N 48°09' W 122°43'8 8.0
2016-Apr-30 05:33N 48°03' W 122°37'7 7.4
2016-Apr-30 04:33N 47°57' W 122°31'9 8.9
2016-Apr-30 03:33N 47°48' W 122°27'9 9.0
2016-Apr-30 02:33N 47°39' W 122°27'6 6.3
2016-Apr-30 01:33N 47°34' W 122°21'1 1.3
2016-Apr-30 00:33N 47°33' W 122°21'0 0.0
2016-Apr-29 23:33N 47°33' W 122°21'5 5.0
2016-Apr-29 22:33N 47°38' W 122°24'2 2.5
2016-Apr-29 21:33N 47°40' W 122°24'1 1.4
2016-Apr-29 20:33N 47°39' W 122°22'0 0.0
2016-Apr-29 19:33N 47°39' W 122°22'0 0.0
2016-Apr-29 18:33N 47°39' W 122°22'0 0.0
2016-Apr-29 17:33N 47°39' W 122°22'0 0.0
2016-Apr-29 16:33N 47°39' W 122°22'0 0.0
2016-Apr-29 15:33N 47°39' W 122°22'0 0.0
2016-Apr-29 14:33N 47°39' W 122°22'  
2016-Apr-26 01:34N 47°40' W 122°22'3 2.6
2016-Apr-26 00:33N 47°37' W 122°23'5 4.5
2016-Apr-25 23:33N 47°33' W 122°20'5 5.0
2016-Apr-25 22:34N 47°37' W 122°24'9 9.1
2016-Apr-25 21:33N 47°46' W 122°27'10 9.9
2016-Apr-25 20:33N 47°56' W 122°31'9 8.3
2016-Apr-25 19:28N 48°03' W 122°39'8 6.3
2016-Apr-25 18:10N 48°10' W 122°45'4 6.0
2016-Apr-25 17:28N 48°13' W 122°49'9 9.9
2016-Apr-25 16:33N 48°22' W 122°46'1111.0
2016-Apr-25 15:34N 48°33' W 122°45'1010.2
2016-Apr-25 14:33N 48°43' W 122°46'1010.3
2016-Apr-25 13:33N 48°49' W 122°58'1110.5
2016-Apr-25 12:33N 48°56' W 123°11'1010.2
2016-Apr-25 11:34N 49°03' W 123°23'1110.5
2016-Apr-25 10:33N 49°10' W 123°34'1010.4
2016-Apr-25 09:34N 49°17' W 123°46'1010.1
2016-Apr-25 08:34N 49°23' W 123°58'1010.3
2016-Apr-25 07:34N 49°30' W 124°10'1010.2
2016-Apr-25 06:34N 49°34' W 124°24'1010.3
2016-Apr-25 05:33N 49°40' W 124°37'1010.3
2016-Apr-25 04:33N 49°47' W 124°50'10 9.9
2016-Apr-25 03:33N 49°54' W 125°01'1010.2
2016-Apr-25 02:34N 50°00' W 125°12'1110.8
2016-Apr-25 01:33N 50°10' W 125°22'7 7.5
2016-Apr-25 00:33N 50°17' W 125°24'3 2.8
2016-Apr-24 23:28N 50°20' W 125°25'4310.0
2016-Apr-24 19:12N 50°30' W 126°30'15 8.5
2016-Apr-24 17:28N 50°39' W 126°49'9 9.5
2016-Apr-24 16:32N 50°43' W 127°01'10 9.7
2016-Apr-24 15:33N 50°49' W 127°13'10 9.5
2016-Apr-24 14:33N 50°55' W 127°25'17 8.6
2016-Apr-24 12:33N 51°06' W 127°45'21 9.3
2016-Apr-24 10:16N 51°27' W 127°51'27 9.8
2016-Apr-24 07:30N 51°54' W 127°56'9 9.8
2016-Apr-24 06:33N 52°03' W 127°56'9 8.6
2016-Apr-24 05:33N 52°08' W 128°08'7 6.7
2016-Apr-24 04:31N 52°14' W 128°12'  

Dump ship's entire track history